Nearby METAR Reports

 

KDAL - Dallas/Love Fld, Texas, USA
Distance from station: W 5mi, 8km
Updated: 08/21/2018 7:53pm
Few Clouds
Few Clouds
 Wind from NE
Wind: NE 7 mph , 11 km/h
Temperature: 88°F , 31°C
Heat Index: 89°F , 32°C
Dew Point: 63°F , 17°C
Humidity: 43%
Barometer: 30.07 inHg , 1018.3 hPa
Clouds: Few Clouds
Visibility: 8 miles , 13 km
Cloud details: Few Clouds 30000 ft
2018/08/22 00:53 KDAL 220053Z 04006KT 8SM FEW300 31/17 A3007 RMK AO2 SLP174 T03110172
KADS - Dallas/Addison, Texas, USA
Distance from station: NNW 9mi, 15km
Updated: 08/21/2018 6:47pm
NOT Current
Haze, Clear
Haze, Clear
 Wind from NNE
Wind: NNE 8 mph , 13 km/h
Temperature: 90°F , 32°C
Dew Point: 61°F , 16°C
Humidity: 38%
Barometer: 30.07 inHg , 1018.3 hPa
Summary: Haze
Clouds: Clear
Visibility: 6 miles , 10 km
2018/08/21 23:47 KADS 212347Z 02007KT 6SM HZ SKC 32/16 A3007
 
KRBD - Dallas/Redbird, Texas, USA
Distance from station: SSW 12mi, 20km
Updated: 08/21/2018 7:53pm
Clear
Clear
 Wind from NE
Wind: NE 8 mph , 13 km/h
Temperature: 90°F , 32°C
Dew Point: 61°F , 16°C
Humidity: 38%
Barometer: 30.06 inHg , 1017.9 hPa
Clouds: Clear
Visibility: 7 miles , 11 km
2018/08/22 00:53 KRBD 220053Z 04007KT 7SM CLR 32/16 A3006 RMK AO2 SLP171 T03170156
KDFW - Dallas/Ft Worth, Texas, USA
Distance from station: WNW 15mi, 25km
Updated: 08/21/2018 7:53pm
Clear
Clear
 Wind from NNE
Wind: NNE 8 mph , 13 km/h
Temperature: 84°F , 29°C
Heat Index: 85°F , 29°C
Dew Point: 63°F , 17°C
Humidity: 48%
Barometer: 30.06 inHg , 1017.9 hPa
Clouds: Clear
Visibility: 7 miles , 11 km
2018/08/22 00:53 KDFW 220053Z 03007KT 7SM CLR 29/17 A3006 RMK AO2 SLP171 T02940167